Current Conditions
Light Rain
Showers



Pressure
999.92 (mb) - 29.53 (inHG)
Visibility

6.2 (miles) - 10.0 (km)
   Temperature
13  °C
55°F
13  °C
Dewpoint
100  %
 Humidity
   Wind Speed
10  mph
9  kts
16  km/h
4.5  m/s
   Wind Direction
 200°
South South
West
   Airport Data
EGTK
Location Oxford (Kidlington) Airport 26 mi (41.83 km)
Metar :EGTK 211920Z 20009KT 9999 -RA BKN013 13/13 Q1000
Wed 21st October 20:20 pm
   Raw Metar Info
Raw METAR is the most common format in the world for the transmission of observational weather data. It is highly standardized through the International Civil Aviation Organization (ICAO), which allows it to be understood throughout most of the world.
   API Info
Data Provided by
https://www.checkwx.com/weather/EGTK
   © Info
CSS/SVG/PHP scripts were developed by weather34.com for use in the weather34 template © 2015-2020

Guide Info provided by Metar-Wikipedia